Time;durP1;ratioP1;P1;durP2;ratioP2;P2;SDS_P1;SDS_P2;PMS_P1;PMS_P2;Temp;Humidity;BMP_temperature;BMP_pressure;BME280_temperature;BME280_humidity;BME280_pressure;Samples;Min_cycle;Max_cycle;Signal;HPM_P1;HPM_P2
2023/06/20 07:16:40;;;;;;;20.25;16.05;;;;;;;25.29;78.14;100220.31;4730309;30;20229;-70
2023/06/20 07:19:33;;;;;;;17.90;15.48;;;;;;;25.30;76.64;100211.09;4778535;29;20355;-70
2023/06/20 07:25:42;;;;;;;17.73;14.80;;;;;;;25.51;75.47;100210.28;4846680;29;20230;-70
2023/06/20 07:34:59;;;;;;;16.55;14.70;;;;;;;25.83;75.23;100205.00;4810837;29;20279;-70
2023/06/20 07:37:29;;;;;;;17.67;14.13;;;;;;;25.82;74.57;100206.91;4845980;29;20329;-70
2023/06/20 07:40:06;;;;;;;13.32;11.77;;;;;;;25.90;72.59;100196.66;4841443;29;20297;-69
2023/06/20 07:43:19;;;;;;;17.20;13.40;;;;;;;25.98;72.14;100194.31;4846764;29;20218;-69
2023/06/20 07:49:14;;;;;;;15.95;13.93;;;;;;;26.20;69.51;100202.41;4844839;29;20311;-70
2023/06/20 07:52:03;;;;;;;16.10;13.70;;;;;;;26.20;68.67;100203.25;4840477;29;20677;-71
2023/06/20 07:54:41;;;;;;;22.13;15.40;;;;;;;26.35;68.34;100202.59;4845013;29;20223;-71
2023/06/20 07:57:16;;;;;;;19.27;14.48;;;;;;;26.43;68.25;100198.56;4843464;29;20742;-71
2023/06/20 07:59:52;;;;;;;16.65;13.50;;;;;;;26.41;68.27;100200.72;4843839;29;20219;-69
2023/06/20 08:02:31;;;;;;;15.35;12.43;;;;;;;26.43;68.64;100201.28;4843017;29;20215;-67
2023/06/20 08:05:04;;;;;;;14.27;12.77;;;;;;;26.47;66.12;100203.25;4844366;29;20659;-71
2023/06/20 08:07:41;;;;;;;17.38;15.68;;;;;;;26.54;68.34;100209.28;4845375;29;20895;-70
2023/06/20 08:10:40;;;;;;;15.95;14.25;;;;;;;26.76;67.74;100200.19;4841446;29;20298;-70
2023/06/20 08:13:11;;;;;;;19.17;15.60;;;;;;;26.84;65.65;100203.25;4875781;29;20326;-70
2023/06/20 08:23:13;;;;;;;20.23;15.40;;;;;;;27.13;64.05;100203.72;4756750;29;20237;-74
2023/06/20 08:26:02;;;;;;;15.52;13.40;;;;;;;27.09;64.88;100202.59;4724736;30;20324;-72
2023/06/20 08:33:04;;;;;;;19.60;15.15;;;;;;;27.23;67.96;100201.06;4719668;29;21374;-72
2023/06/20 08:35:57;;;;;;;;;;;;;;;;;;;;;
2023/06/20 08:38:49;;;;;;;19.80;17.65;;;;;;;27.70;64.54;100190.16;4757192;29;20216;-70
2023/06/20 15:34:04;;;;;;;11.45;6.72;;;;;;;31.83;36.45;99908.28;2989065;27;20245;-65
2023/06/20 15:37:38;;;;;;;13.65;6.72;;;;;;;31.62;37.12;99916.03;4722759;30;20277;-69
2023/06/20 16:02:24;;;;;;;;;;;;;;;;;;;;;
2023/06/20 16:09:21;;;;;;;13.45;7.38;;;;;;;31.46;37.89;99889.97;4626328;30;20238;-65
2023/06/20 16:16:41;;;;;;;8.75;6.80;;;;;;;31.21;37.80;99897.50;4712426;30;20296;-65
2023/06/20 16:24:18;;;;;;;;;;;;;;;;;;;;;
2023/06/20 18:15:20;;;;;;;14.05;8.68;;;;;;;29.36;50.46;99917.41;4697766;30;20322;-70
2023/06/20 18:22:04;;;;;;;11.85;8.82;;;;;;;29.26;51.71;99922.91;4644756;24;20722;-69
2023/06/20 18:24:40;;;;;;;19.55;8.20;;;;;;;29.21;51.92;99928.38;4822148;29;20219;-69
2023/06/20 18:27:26;;;;;;;13.25;8.73;;;;;;;29.14;51.92;99931.44;4830112;29;20230;-71
2023/06/20 18:33:05;;;;;;;14.23;8.82;;;;;;;29.05;52.17;99933.13;4832672;29;20223;-71
2023/06/20 18:35:51;;;;;;;14.32;8.63;;;;;;;29.02;51.38;99950.09;4832325;29;20681;-71
2023/06/20 18:41:26;;;;;;;14.55;8.70;;;;;;;28.99;52.79;99966.22;4830215;29;20250;-70
2023/06/20 18:44:01;;;;;;;12.05;8.80;;;;;;;28.97;53.00;99969.22;4835063;29;20227;-70
2023/06/20 18:47:04;;;;;;;12.32;7.53;;;;;;;28.91;52.55;99980.44;4835498;29;20832;-72
2023/06/20 18:53:09;;;;;;;10.10;7.43;;;;;;;28.79;51.73;99994.41;4800247;29;20216;-70
2023/06/20 18:55:48;;;;;;;12.85;7.65;;;;;;;28.77;51.23;99991.13;4836206;29;20242;-69
2023/06/20 18:58:22;;;;;;;9.02;7.18;;;;;;;28.75;51.15;99999.59;4834882;29;20444;-70
2023/06/20 19:00:59;;;;;;;12.90;7.90;;;;;;;28.75;51.15;100007.78;4834289;29;20222;-69
2023/06/20 19:03:42;;;;;;;12.32;7.90;;;;;;;28.77;50.68;100008.31;4834247;29;20298;-68
2023/06/20 19:06:14;;;;;;;13.23;7.47;;;;;;;28.74;50.95;100019.78;4835763;29;20294;-70
2023/06/20 19:08:52;;;;;;;13.20;7.28;;;;;;;28.73;50.71;100007.22;4833730;29;20243;-71
2023/06/20 19:11:24;;;;;;;10.57;6.85;;;;;;;28.73;49.69;100003.69;4835598;29;20269;-72
2023/06/20 19:14:07;;;;;;;14.45;7.50;;;;;;;28.71;49.74;100009.41;4838679;29;20235;-70
2023/06/20 19:16:51;;;;;;;14.55;7.55;;;;;;;28.71;49.14;100008.59;4777629;29;20226;-70
2023/06/20 19:20:03;;;;;;;18.67;8.07;;;;;;;28.66;49.29;100017.63;4778195;29;20235;-70
2023/06/20 19:23:04;;;;;;;;;;;;;;;;;;;;;
2023/06/20 19:26:18;;;;;;;11.98;6.60;;;;;;;28.58;49.28;100048.22;4795985;29;20228;-70
2023/06/20 19:29:09;;;;;;;17.08;7.22;;;;;;;28.56;48.91;100061.28;4798103;29;20220;-70
2023/06/20 19:32:04;;;;;;;12.05;6.82;;;;;;;28.50;49.10;100058.88;4795387;29;20221;-71
2023/06/20 19:39:38;;;;;;;10.45;6.22;;;;;;;28.42;49.01;100046.59;4824776;29;20282;-70
2023/06/20 19:42:26;;;;;;;10.07;7.03;;;;;;;28.36;48.87;100058.59;4763444;29;20268;-70
2023/06/20 19:45:53;;;;;;;11.85;6.38;;;;;;;28.24;49.54;100064.31;4800976;29;20239;-69
2023/06/20 19:48:27;;;;;;;11.82;6.65;;;;;;;28.22;49.97;100065.72;4838881;29;20304;-69
2023/06/20 19:54:19;;;;;;;12.45;7.47;;;;;;;28.20;49.81;100078.78;4834765;29;20707;-70
2023/06/20 19:56:48;;;;;;;10.85;6.72;;;;;;;28.20;49.96;100089.69;4836106;29;20597;-70
2023/06/20 19:59:45;;;;;;;11.82;7.28;;;;;;;28.19;49.94;100083.44;4836874;29;20696;-70
2023/06/20 20:02:24;;;;;;;12.52;6.40;;;;;;;28.17;49.61;100084.78;4831782;29;20223;-70
2023/06/20 20:05:13;;;;;;;12.40;6.78;;;;;;;28.15;49.83;100086.94;4831967;29;20243;-70
2023/06/20 20:07:44;;;;;;;8.73;5.55;;;;;;;28.11;49.74;100086.66;4834743;29;20215;-69
2023/06/20 20:10:25;;;;;;;10.52;6.75;;;;;;;28.08;50.23;100087.22;4835863;29;20215;-72
2023/06/20 20:12:57;;;;;;;10.00;6.43;;;;;;;28.04;50.04;100092.41;4836138;29;20279;-69
2023/06/20 20:15:39;;;;;;;10.05;7.03;;;;;;;28.01;50.29;100101.09;4837386;29;20235;-70
2023/06/20 20:21:31;;;;;;;11.30;7.72;;;;;;;27.92;51.26;100093.75;4777493;29;20228;-71
2023/06/20 20:24:35;;;;;;;10.90;7.10;;;;;;;27.89;51.84;100100.53;4791000;29;20355;-72
2023/06/20 20:27:09;;;;;;;13.15;8.05;;;;;;;27.87;52.96;100100.03;4821640;29;20222;-69
2023/06/20 20:29:48;;;;;;;18.25;7.88;;;;;;;27.80;53.53;100107.63;4825965;29;20208;-69
2023/06/20 20:32:42;;;;;;;16.20;8.30;;;;;;;27.72;54.48;100105.44;4824097;29;20216;-70
2023/06/20 20:35:53;;;;;;;13.40;8.30;;;;;;;27.61;54.96;100111.97;4823688;29;20341;-70
2023/06/20 20:38:29;;;;;;;12.52;7.88;;;;;;;27.59;54.24;100114.13;4823247;29;20761;-69
2023/06/20 20:41:03;;;;;;;11.35;8.15;;;;;;;27.60;54.69;100118.50;4801969;29;20756;-68
2023/06/20 20:47:50;;;;;;;14.48;7.75;;;;;;;27.58;54.71;100120.66;4733231;30;20714;-65
2023/06/20 20:54:36;;;;;;;17.67;8.25;;;;;;;27.56;54.74;100129.09;4808264;29;20245;-65
2023/06/20 21:01:08;;;;;;;13.55;9.00;;;;;;;27.48;55.80;100143.19;4809098;29;20694;-66
2023/06/20 21:07:06;;;;;;;12.05;8.18;;;;;;;27.28;56.62;100154.81;4812777;29;20219;-64
2023/06/20 21:10:30;;;;;;;13.77;8.80;;;;;;;27.25;56.50;100162.72;4810834;29;20245;-65
2023/06/20 21:13:11;;;;;;;11.05;8.13;;;;;;;27.20;56.63;100163.50;4816340;29;20219;-64
2023/06/20 21:16:29;;;;;;;27.50;9.88;;;;;;;27.24;57.06;100170.06;4820745;29;20240;-64
2023/06/20 21:19:07;;;;;;;14.88;8.68;;;;;;;27.20;57.46;100174.38;4806670;29;20586;-65
2023/06/20 21:21:55;;;;;;;;;;;;;;;;;;;;;
2023/06/20 21:27:33;;;;;;;14.50;9.07;;;;;;;27.00;58.16;100196.06;4786391;29;20366;-65
2023/06/20 21:30:06;;;;;;;11.85;8.85;;;;;;;27.02;58.11;100191.16;4816075;29;20211;-66
2023/06/20 21:33:29;;;;;;;;;;;;;;;;;;;;;
2023/06/20 21:36:06;;;;;;;14.20;9.43;;;;;;;26.84;59.43;100202.41;4774089;29;20610;-65
2023/06/20 21:57:32;;;;;;;15.07;8.10;;;;;;;26.58;58.87;100220.44;3193558;27;20256;-73
